KECG

Elizabeth City CG Air Station / Rgnl Airport

Elizabeth City, North Carolina, USA
METAR KECG 241210Z 22006KT 8SM OVC005 17/17 A3023 RMK AO2 T01670167
Observed Flight Rules
Feb-24 @ 12:10 UTC (11 minutes ago) Instrument Flight Rules
Wind Visibility Clouds
220° at 6 knots 8 miles
  • Overcast at 500' AGL
Temperatures Readings
Current 17°C / 63°F
Dewpoint 17°C / 63°F
Humidity 100%
Altimeter 30.23" Hg
Pressure 1024 hPa
Elevation 11
METAR KECG 241210Z 22006KT 8SM OVC005 17/17 A3023 RMK AO2 T01670167
Observed Flight Rules
Feb-24 @ 12:10 UTC
(11 minutes ago)
IFR
Wind Visibility
220° at 6 knots 8 miles
Clouds
  • Overcast at 500' AGL
Temperature Dewpoint
17°C / 63°F 17°C / 63°F
Humidity Altimeter Pressure
100% 30.23" Hg 1024 hPa